Time;durP1;ratioP1;P1;durP2;ratioP2;P2;SDS_P1;SDS_P2;PMS_P1;PMS_P2;Temp;Humidity;BMP_temperature;BMP_pressure;BME280_temperature;BME280_humidity;BME280_pressure;Samples;Min_cycle;Max_cycle;Signal;HPM_P1;HPM_P2
2022/06/19 00:01:25;;;;;;;16.43;8.67;;;24.50;95.70;;;;;;5080217;28;20539;-86
2022/06/19 00:03:55;;;;;;;18.30;8.83;;;24.50;95.70;;;;;;5080357;28;20535;-86
2022/06/19 00:06:25;;;;;;;23.90;8.47;;;24.40;96.00;;;;;;5079322;28;21034;-86
2022/06/19 00:08:52;;;;;;;12.80;7.00;;;24.40;96.00;;;;;;5094143;28;20516;-86
2022/06/19 00:11:21;;;;;;;15.60;6.90;;;24.30;96.00;;;;;;5081604;28;20447;-87
2022/06/19 00:13:58;;;;;;;13.93;7.87;;;24.30;96.20;;;;;;5080214;28;20491;-86
2022/06/19 00:16:27;;;;;;;15.83;7.23;;;24.20;96.20;;;;;;5080521;28;20816;-86
2022/06/19 00:18:56;;;;;;;18.30;7.00;;;24.10;96.60;;;;;;5080228;28;20451;-87
2022/06/19 00:21:24;;;;;;;28.17;7.67;;;24.10;96.50;;;;;;5096872;28;20466;-86
2022/06/19 00:23:54;;;;;;;15.20;7.27;;;24.10;96.70;;;;;;5099973;28;20432;-86
2022/06/19 00:26:20;;;;;;;17.40;7.27;;;24.00;96.80;;;;;;5086249;28;20460;-87
2022/06/19 00:28:48;;;;;;;14.43;7.30;;;24.10;96.90;;;;;;5083690;28;20452;-87
2022/06/19 00:31:17;;;;;;;16.23;7.73;;;24.00;96.70;;;;;;5086901;28;20476;-87
2022/06/19 00:33:45;;;;;;;15.40;7.27;;;24.10;96.60;;;;;;5083327;28;20484;-87
2022/06/19 00:36:12;;;;;;;16.73;5.93;;;24.10;96.50;;;;;;5080128;28;20507;-87
2022/06/19 00:38:43;;;;;;;20.00;6.90;;;24.10;96.20;;;;;;5079121;28;20527;-87
2022/06/19 00:41:10;;;;;;;16.47;7.40;;;24.20;96.00;;;;;;5078912;28;20432;-87
2022/06/19 00:43:53;;;;;;;16.10;6.33;;;24.20;95.70;;;;;;5079304;28;20454;-86
2022/06/19 00:46:41;;;;;;;17.57;7.17;;;24.10;95.50;;;;;;5082110;28;20502;-86
2022/06/19 00:49:11;;;;;;;16.07;6.23;;;24.10;95.80;;;;;;5082908;28;20452;-86
2022/06/19 00:51:38;;;;;;;24.07;7.27;;;24.10;96.20;;;;;;5080743;28;20464;-87
2022/06/19 00:54:07;;;;;;;12.17;6.10;;;24.00;96.40;;;;;;5081191;28;20560;-86
2022/06/19 00:56:34;;;;;;;11.17;6.70;;;23.80;96.80;;;;;;5080865;28;20880;-86
2022/06/19 00:59:03;;;;;;;13.30;6.23;;;23.70;97.20;;;;;;5080456;28;20444;-87
2022/06/19 01:01:33;;;;;;;9.57;5.20;;;23.60;97.50;;;;;;5078829;28;20448;-86
2022/06/19 01:04:04;;;;;;;13.73;6.67;;;23.50;97.60;;;;;;5076283;28;20476;-87
2022/06/19 01:06:32;;;;;;;13.07;6.20;;;23.40;97.60;;;;;;5078213;28;20937;-87
2022/06/19 01:09:01;;;;;;;26.80;6.50;;;23.40;97.80;;;;;;5078175;28;20535;-87
2022/06/19 01:11:33;;;;;;;11.10;5.97;;;23.40;97.80;;;;;;5079838;28;20470;-87
2022/06/19 01:14:06;;;;;;;20.40;7.13;;;23.40;97.60;;;;;;5091267;28;20468;-87
2022/06/19 01:16:40;;;;;;;18.47;5.60;;;23.40;97.60;;;;;;5098724;28;20518;-86
2022/06/19 01:19:11;;;;;;;15.30;6.13;;;23.40;97.80;;;;;;5098901;28;20432;-87
2022/06/19 01:21:45;;;;;;;18.70;6.90;;;23.30;97.90;;;;;;5093039;28;20527;-86
2022/06/19 01:24:23;;;;;;;19.43;6.57;;;23.20;98.00;;;;;;5081343;28;20603;-86
2022/06/19 01:26:59;;;;;;;21.43;5.80;;;23.10;98.10;;;;;;5082183;28;20495;-86
2022/06/19 01:29:27;;;;;;;16.87;6.13;;;23.20;98.10;;;;;;5084148;28;20524;-87
2022/06/19 01:31:56;;;;;;;14.27;6.00;;;23.20;98.00;;;;;;5080056;28;20536;-86
2022/06/19 01:34:28;;;;;;;19.47;6.47;;;23.00;98.20;;;;;;5083210;28;20561;-86
2022/06/19 01:36:59;;;;;;;14.53;6.20;;;22.90;98.80;;;;;;5100513;22;20550;-84
2022/06/19 01:39:28;;;;;;;15.47;6.00;;;22.90;99.10;;;;;;5080570;28;20814;-86
2022/06/19 01:41:56;;;;;;;11.70;5.70;;;22.90;99.00;;;;;;5080860;28;20498;-85
2022/06/19 01:44:23;;;;;;;11.57;6.10;;;23.00;98.80;;;;;;5083181;28;20450;-87
2022/06/19 01:46:51;;;;;;;15.40;5.53;;;23.00;99.10;;;;;;5087248;28;20452;-86
2022/06/19 01:49:20;;;;;;;11.93;5.37;;;22.90;99.30;;;;;;5085727;28;20452;-85
2022/06/19 01:51:47;;;;;;;10.90;5.87;;;22.90;99.30;;;;;;5080725;28;20459;-85
2022/06/19 01:54:20;;;;;;;13.40;5.60;;;22.80;99.70;;;;;;5086305;28;20484;-86
2022/06/19 01:56:47;;;;;;;15.47;5.63;;;22.70;99.80;;;;;;5090283;28;20472;-87
2022/06/19 01:59:16;;;;;;;12.93;5.10;;;22.80;99.90;;;;;;5092418;28;20998;-86
2022/06/19 02:01:44;;;;;;;11.80;5.13;;;22.70;99.90;;;;;;5097831;28;20436;-83
2022/06/19 02:04:11;;;;;;;8.80;4.80;;;22.50;99.90;;;;;;5098506;28;20454;-83
2022/06/19 02:06:44;;;;;;;12.80;5.87;;;22.50;99.90;;;;;;5094238;28;20480;-85
2022/06/19 02:09:14;;;;;;;14.70;5.77;;;22.30;99.90;;;;;;5090670;28;20462;-85
2022/06/19 02:11:40;;;;;;;17.20;6.40;;;22.20;99.90;;;;;;5095664;28;20475;-85
2022/06/19 02:14:10;;;;;;;12.20;5.40;;;22.20;99.90;;;;;;5079171;28;20591;-85
2022/06/19 02:16:42;;;;;;;12.23;5.60;;;22.40;99.90;;;;;;5078575;28;20506;-86
2022/06/19 02:19:10;;;;;;;13.80;5.30;;;22.30;99.90;;;;;;5079780;28;20856;-85
2022/06/19 02:21:43;;;;;;;13.53;5.23;;;22.30;99.90;;;;;;5079300;28;20506;-85
2022/06/19 02:24:13;;;;;;;11.33;4.80;;;22.40;99.90;;;;;;5080668;28;20462;-87
2022/06/19 02:26:42;;;;;;;10.77;5.17;;;22.50;99.90;;;;;;5083583;28;20575;-87
2022/06/19 02:29:11;;;;;;;13.43;5.50;;;22.60;99.80;;;;;;5088167;28;20509;-87
2022/06/19 02:31:52;;;;;;;10.90;4.63;;;22.60;99.70;;;;;;5086027;28;20523;-88
2022/06/19 02:34:31;;;;;;;17.43;6.20;;;22.70;99.70;;;;;;5086426;28;20529;-89
2022/06/19 02:37:14;;;;;;;11.43;5.73;;;22.70;99.80;;;;;;5084226;28;21020;-87
2022/06/19 02:39:50;;;;;;;15.33;6.20;;;22.80;99.50;;;;;;5085296;28;20474;-87
2022/06/19 02:42:49;;;;;;;10.63;5.17;;;22.70;99.40;;;;;;5095884;28;20469;-87
2022/06/19 02:45:22;;;;;;;10.27;5.73;;;22.70;99.40;;;;;;5085029;28;20439;-86
2022/06/19 02:51:27;;;;;;;12.00;4.70;;;22.70;99.60;;;;;;5070260;28;20436;-87
2022/06/19 02:57:40;;;;;;;13.67;5.00;;;22.50;99.90;;;;;;5080903;28;20837;-86
2022/06/19 03:03:47;;;;;;;11.17;5.30;;;22.60;99.80;;;;;;4943042;28;20445;-89
2022/06/19 03:06:15;;;;;;;12.43;5.40;;;22.40;99.90;;;;;;5084552;28;20510;-88
2022/06/19 03:08:43;;;;;;;12.07;5.40;;;22.40;99.90;;;;;;5084021;28;20818;-87
2022/06/19 03:11:11;;;;;;;14.53;5.40;;;22.40;99.90;;;;;;5083633;28;20881;-86
2022/06/19 03:13:41;;;;;;;13.17;4.70;;;22.30;99.90;;;;;;5082134;28;20487;-89
2022/06/19 03:16:08;;;;;;;16.47;6.20;;;22.30;99.90;;;;;;5083404;28;20593;-87
2022/06/19 03:18:36;;;;;;;13.63;5.17;;;22.30;99.90;;;;;;5083132;28;20940;-87
2022/06/19 03:21:04;;;;;;;13.23;4.90;;;22.30;99.90;;;;;;5081557;28;20475;-87
2022/06/19 03:23:34;;;;;;;20.37;6.03;;;22.30;99.90;;;;;;5081996;28;20507;-87
2022/06/19 03:26:03;;;;;;;15.07;6.07;;;22.30;99.90;;;;;;5082784;28;20456;-88
2022/06/19 03:28:30;;;;;;;15.50;5.57;;;22.30;99.90;;;;;;5081867;28;20460;-88
2022/06/19 03:30:57;;;;;;;10.60;5.47;;;22.30;99.90;;;;;;5082222;28;20459;-88
2022/06/19 03:33:24;;;;;;;14.00;4.87;;;22.30;99.90;;;;;;5086081;28;20501;-88
2022/06/19 03:35:54;;;;;;;12.67;5.10;;;22.20;99.90;;;;;;5091646;28;20529;-86
2022/06/19 03:38:20;;;;;;;14.40;5.80;;;22.20;99.90;;;;;;5081821;28;20459;-87
2022/06/19 03:40:47;;;;;;;11.03;5.20;;;22.20;99.90;;;;;;5082498;28;20448;-87
2022/06/19 03:43:16;;;;;;;10.43;4.60;;;22.10;99.90;;;;;;5082830;28;20436;-86
2022/06/19 03:45:47;;;;;;;9.73;5.20;;;22.00;99.90;;;;;;5083723;28;20459;-86
2022/06/19 03:48:14;;;;;;;13.17;5.00;;;22.00;99.90;;;;;;5089514;28;20417;-87
2022/06/19 03:50:43;;;;;;;13.53;4.97;;;22.10;99.90;;;;;;5087459;28;20931;-88
2022/06/19 03:53:10;;;;;;;10.80;4.47;;;22.10;99.90;;;;;;5085624;28;20970;-88
2022/06/19 03:55:37;;;;;;;12.87;5.13;;;22.20;99.90;;;;;;5084347;28;20978;-88
2022/06/19 03:58:06;;;;;;;11.23;5.03;;;22.10;99.90;;;;;;5084626;28;20478;-88
2022/06/19 04:00:34;;;;;;;14.73;4.80;;;22.10;99.90;;;;;;5095246;28;20476;-85
2022/06/19 04:03:01;;;;;;;10.73;5.17;;;22.20;99.90;;;;;;5097746;28;20546;-88
2022/06/19 04:05:28;;;;;;;16.57;4.60;;;22.20;99.90;;;;;;5089309;28;20490;-87
2022/06/19 04:07:57;;;;;;;9.37;5.03;;;22.20;99.90;;;;;;5087980;28;20447;-85
2022/06/19 04:10:24;;;;;;;11.83;5.07;;;22.20;99.90;;;;;;5088918;28;20452;-85
2022/06/19 04:12:51;;;;;;;11.30;5.30;;;22.20;99.90;;;;;;5088760;28;20540;-86
2022/06/19 04:15:18;;;;;;;11.13;5.50;;;22.20;99.90;;;;;;5088372;28;20479;-88
2022/06/19 04:17:47;;;;;;;12.20;4.77;;;22.30;99.90;;;;;;5089490;28;20547;-85
2022/06/19 04:20:14;;;;;;;14.80;6.23;;;22.30;99.90;;;;;;5089213;28;20468;-87
2022/06/19 04:22:41;;;;;;;12.10;5.30;;;22.30;99.90;;;;;;5086661;28;20958;-87
2022/06/19 04:25:13;;;;;;;15.63;5.47;;;22.30;99.90;;;;;;5085388;28;20891;-87
2022/06/19 04:27:40;;;;;;;14.07;5.73;;;22.40;99.90;;;;;;5084985;28;20513;-86
2022/06/19 04:30:08;;;;;;;11.43;5.50;;;22.40;99.90;;;;;;5088381;28;20460;-87
2022/06/19 04:32:43;;;;;;;13.03;4.90;;;22.50;99.90;;;;;;5088010;28;20519;-86
2022/06/19 04:35:17;;;;;;;11.13;5.33;;;22.50;99.90;;;;;;5084745;28;20467;-87
2022/06/19 04:37:46;;;;;;;9.90;4.90;;;22.60;99.90;;;;;;5084532;28;20490;-87
2022/06/19 04:40:13;;;;;;;14.87;5.43;;;22.60;99.90;;;;;;5083841;28;20457;-85
2022/06/19 04:42:40;;;;;;;14.93;4.90;;;22.70;99.90;;;;;;5083404;28;20495;-86
2022/06/19 04:45:11;;;;;;;17.70;5.60;;;22.80;99.90;;;;;;5084992;28;20437;-88
2022/06/19 04:47:41;;;;;;;16.27;4.87;;;22.80;99.90;;;;;;5084488;28;20878;-87
2022/06/19 04:50:11;;;;;;;12.77;5.40;;;23.00;99.70;;;;;;5083999;28;20444;-87
2022/06/19 04:52:39;;;;;;;13.60;5.67;;;23.20;99.30;;;;;;5083798;28;20460;-87
2022/06/19 04:55:10;;;;;;;11.93;5.27;;;23.30;99.40;;;;;;5084128;28;20922;-87
2022/06/19 04:57:37;;;;;;;11.10;5.57;;;23.30;99.30;;;;;;5084628;28;20476;-87
2022/06/19 05:00:11;;;;;;;19.30;5.83;;;23.40;99.20;;;;;;5085510;28;20447;-86
2022/06/19 05:02:38;;;;;;;11.87;4.90;;;23.50;98.90;;;;;;5085626;28;20451;-87
2022/06/19 05:08:12;;;;;;;14.10;5.37;;;23.70;98.70;;;;;;5086956;28;20520;-87
2022/06/19 05:13:39;;;;;;;10.53;5.53;;;23.80;98.50;;;;;;5096580;28;20515;-85
2022/06/19 05:16:08;;;;;;;13.33;5.47;;;23.90;98.50;;;;;;5083988;28;20475;-87
2022/06/19 05:18:42;;;;;;;14.37;5.77;;;23.90;98.40;;;;;;5097490;28;20431;-87
2022/06/19 05:21:19;;;;;;;;;;;;;;;;;;;;;
2022/06/19 05:23:49;;;;;;;18.13;5.87;;;24.10;98.20;;;;;;5093017;28;20432;-87
2022/06/19 05:26:24;;;;;;;10.43;5.13;;;24.30;97.80;;;;;;5086972;28;20476;-87
2022/06/19 05:28:54;;;;;;;16.20;6.17;;;24.50;97.30;;;;;;5088777;28;20515;-87
2022/06/19 05:31:24;;;;;;;15.77;5.83;;;24.60;96.60;;;;;;5089015;28;20456;-87
2022/06/19 05:33:51;;;;;;;29.33;6.30;;;24.80;96.30;;;;;;5086569;28;20433;-86
2022/06/19 05:36:19;;;;;;;13.53;5.80;;;24.80;95.80;;;;;;5085837;28;20464;-86
2022/06/19 05:38:48;;;;;;;14.00;5.17;;;25.00;95.60;;;;;;5084637;28;20437;-84
2022/06/19 05:41:17;;;;;;;17.83;5.77;;;25.10;95.50;;;;;;5085770;28;20863;-86
2022/06/19 05:43:44;;;;;;;23.83;6.60;;;25.30;94.90;;;;;;5083959;28;20955;-86
2022/06/19 05:46:15;;;;;;;15.67;5.50;;;25.40;94.20;;;;;;5093643;28;20524;-86
2022/06/19 05:48:43;;;;;;;15.80;6.10;;;25.50;93.80;;;;;;5088627;28;20409;-86
2022/06/19 05:51:12;;;;;;;18.40;6.03;;;25.50;93.50;;;;;;5086810;28;20467;-86
2022/06/19 05:53:42;;;;;;;19.13;6.10;;;25.60;93.30;;;;;;5085481;28;20805;-85
2022/06/19 05:56:17;;;;;;;17.67;5.83;;;25.70;93.30;;;;;;5080506;28;20452;-85
2022/06/19 05:58:45;;;;;;;15.60;5.17;;;25.80;93.00;;;;;;5079813;28;20539;-84
2022/06/19 06:01:14;;;;;;;17.83;6.60;;;25.90;92.90;;;;;;5080908;28;20460;-87
2022/06/19 06:03:41;;;;;;;14.70;5.90;;;26.10;92.60;;;;;;5079458;28;20432;-85
2022/06/19 06:06:18;;;;;;;19.30;5.60;;;26.10;92.10;;;;;;5080193;28;20466;-87
2022/06/19 06:08:46;;;;;;;12.10;5.70;;;26.30;92.20;;;;;;5081718;28;20482;-87
2022/06/19 06:11:16;;;;;;;15.73;5.57;;;26.30;92.10;;;;;;5082363;28;20448;-87
2022/06/19 06:13:43;;;;;;;11.97;5.03;;;26.50;91.90;;;;;;5082253;28;20859;-87
2022/06/19 06:16:11;;;;;;;17.23;6.17;;;26.50;91.70;;;;;;5083478;28;20484;-86
2022/06/19 06:18:41;;;;;;;24.10;6.30;;;26.60;91.50;;;;;;5086840;28;21026;-86
2022/06/19 06:24:16;;;;;;;17.07;5.93;;;26.70;91.60;;;;;;5085931;28;20531;-85
2022/06/19 06:26:46;;;;;;;15.87;6.30;;;26.80;91.40;;;;;;5083855;28;21015;-85
2022/06/19 06:29:13;;;;;;;12.50;5.90;;;26.90;91.20;;;;;;5083938;28;20474;-84
2022/06/19 06:31:40;;;;;;;14.20;7.03;;;27.00;91.10;;;;;;5085281;28;20455;-86
2022/06/19 06:34:12;;;;;;;18.67;5.30;;;27.10;90.80;;;;;;5088305;28;20448;-87
2022/06/19 06:36:41;;;;;;;21.80;6.10;;;27.30;90.70;;;;;;5087362;28;21004;-86
2022/06/19 06:39:17;;;;;;;12.43;5.23;;;27.40;90.50;;;;;;5092331;28;20443;-85
2022/06/19 06:41:46;;;;;;;12.27;6.57;;;27.30;89.50;;;;;;5090866;28;20470;-88
2022/06/19 06:44:14;;;;;;;17.20;5.50;;;27.40;90.10;;;;;;5086654;28;20451;-86
2022/06/19 06:46:44;;;;;;;17.97;5.60;;;27.50;90.10;;;;;;5082167;28;20499;-86
2022/06/19 06:49:17;;;;;;;14.17;5.80;;;27.60;89.90;;;;;;5082973;28;20526;-86
2022/06/19 06:51:56;;;;;;;19.77;6.47;;;27.70;90.00;;;;;;5081243;28;20433;-85
2022/06/19 06:54:26;;;;;;;14.10;5.93;;;27.80;90.00;;;;;;5078707;28;20505;-84
2022/06/19 06:57:05;;;;;;;18.40;6.87;;;27.90;90.00;;;;;;5077930;28;20470;-85
2022/06/19 06:59:41;;;;;;;10.77;5.40;;;27.90;89.50;;;;;;5077848;28;20459;-84
2022/06/19 07:02:20;;;;;;;19.50;6.80;;;28.00;89.40;;;;;;5077608;28;20460;-84
2022/06/19 07:04:49;;;;;;;13.97;6.53;;;28.20;88.80;;;;;;5083345;28;20456;-87
2022/06/19 07:07:25;;;;;;;16.20;6.30;;;28.30;88.20;;;;;;5081969;28;20472;-86
2022/06/19 07:10:01;;;;;;;14.13;6.73;;;28.50;87.60;;;;;;5082716;28;20420;-87
2022/06/19 07:12:34;;;;;;;19.13;7.20;;;28.60;86.20;;;;;;5092075;28;20417;-87
2022/06/19 07:15:14;;;;;;;17.30;6.80;;;28.70;85.70;;;;;;5100600;28;20467;-85
2022/06/19 07:17:45;;;;;;;13.97;7.23;;;28.80;86.20;;;;;;5086431;28;20464;-85
2022/06/19 07:20:25;;;;;;;18.73;6.43;;;28.80;85.70;;;;;;5084492;28;20432;-85
2022/06/19 07:23:01;;;;;;;17.47;7.47;;;28.80;86.10;;;;;;5083893;28;20807;-85
2022/06/19 07:28:22;;;;;;;16.73;6.57;;;28.90;86.90;;;;;;5081888;28;20505;-85
2022/06/19 07:30:49;;;;;;;19.93;7.00;;;29.00;86.60;;;;;;5082884;28;20440;-85
2022/06/19 07:33:19;;;;;;;17.77;6.70;;;29.10;86.80;;;;;;5085260;28;20512;-86
2022/06/19 07:35:49;;;;;;;21.83;6.83;;;29.00;86.90;;;;;;5086872;28;20522;-86
2022/06/19 07:38:17;;;;;;;13.37;6.63;;;29.10;87.00;;;;;;5191365;22;20495;-86
2022/06/19 07:40:44;;;;;;;18.67;7.03;;;29.10;87.00;;;;;;5093813;28;20474;-84
2022/06/19 07:43:11;;;;;;;16.10;7.67;;;29.10;86.70;;;;;;5090631;28;20472;-86
2022/06/19 07:45:40;;;;;;;17.93;7.00;;;29.10;86.80;;;;;;5085573;28;20445;-85
2022/06/19 07:51:27;;;;;;;13.67;7.33;;;29.20;88.10;;;;;;5088355;28;20404;-86
2022/06/19 07:56:54;;;;;;;18.00;7.50;;;29.40;89.40;;;;;;5028640;28;20810;-85
2022/06/19 07:59:51;;;;;;;16.20;7.70;;;29.40;89.80;;;;;;5027401;28;20467;-85
2022/06/19 08:06:05;;;;;;;12.20;7.60;;;29.60;90.20;;;;;;5054749;28;20458;-85
2022/06/19 08:08:47;;;;;;;15.87;6.90;;;29.70;90.40;;;;;;5100526;28;20466;-85
2022/06/19 08:11:31;;;;;;;19.57;8.73;;;29.80;90.30;;;;;;5099621;28;20445;-85
2022/06/19 08:17:37;;;;;;;19.30;10.23;;;30.20;88.80;;;;;;5038540;28;20469;-86
2022/06/19 08:20:06;;;;;;;18.67;9.83;;;30.40;84.80;;;;;;5091642;28;21006;-86
2022/06/19 08:22:32;;;;;;;18.13;10.67;;;30.50;84.10;;;;;;5088313;28;20492;-84
2022/06/19 08:25:02;;;;;;;16.30;10.27;;;30.60;82.80;;;;;;5090164;28;20958;-85
2022/06/19 08:27:29;;;;;;;19.50;12.47;;;30.80;81.20;;;;;;5084828;28;20509;-85
2022/06/19 08:29:58;;;;;;;21.30;13.20;;;30.90;79.50;;;;;;5085326;28;20476;-85
2022/06/19 08:32:25;;;;;;;34.17;14.10;;;31.00;78.40;;;;;;5085927;28;20458;-86
2022/06/19 08:34:55;;;;;;;18.17;12.80;;;31.10;77.70;;;;;;5081173;28;20489;-85
2022/06/19 08:37:25;;;;;;;20.60;12.67;;;31.20;76.90;;;;;;5079841;28;20474;-86
2022/06/19 08:39:53;;;;;;;16.77;11.97;;;31.20;75.50;;;;;;5081534;28;20456;-85
2022/06/19 08:42:34;;;;;;;20.97;12.93;;;31.30;74.80;;;;;;5082782;28;20548;-84
2022/06/19 08:45:22;;;;;;;15.20;11.90;;;31.40;73.50;;;;;;5081319;28;20484;-85
2022/06/19 08:48:25;;;;;;;23.30;12.00;;;31.50;72.70;;;;;;5083886;28;20494;-86
2022/06/19 08:51:32;;;;;;;19.40;13.07;;;31.50;70.20;;;;;;5064171;28;20463;-85
2022/06/19 08:54:25;;;;;;;19.83;11.80;;;31.60;69.10;;;;;;5083655;28;20450;-86
2022/06/19 08:57:19;;;;;;;18.10;12.03;;;31.70;66.10;;;;;;5086101;28;20495;-87
2022/06/19 08:59:55;;;;;;;16.20;11.20;;;31.90;63.80;;;;;;5084667;28;20437;-86
2022/06/19 09:02:36;;;;;;;14.13;10.60;;;32.00;61.00;;;;;;5078670;28;20470;-86
2022/06/19 09:08:24;;;;;;;21.97;12.03;;;32.30;58.70;;;;;;5084378;28;20510;-86
2022/06/19 09:11:03;;;;;;;15.97;11.27;;;32.40;58.00;;;;;;5090823;28;20485;-86
2022/06/19 09:13:46;;;;;;;15.90;12.40;;;32.50;57.70;;;;;;5089040;28;20467;-86
2022/06/19 09:16:23;;;;;;;23.57;11.90;;;32.50;56.70;;;;;;5081650;28;20846;-87
2022/06/19 09:19:01;;;;;;;16.90;11.10;;;32.60;55.00;;;;;;5080690;28;20980;-87
2022/06/19 09:21:37;;;;;;;16.97;9.93;;;32.70;53.60;;;;;;5082936;28;20471;-86
2022/06/19 09:24:19;;;;;;;17.20;10.00;;;32.70;52.70;;;;;;5085964;28;20528;-86
2022/06/19 09:26:51;;;;;;;13.40;10.53;;;32.80;52.70;;;;;;5082813;28;20459;-87
2022/06/19 09:29:24;;;;;;;14.87;10.17;;;32.80;52.10;;;;;;5084350;28;20435;-86
2022/06/19 09:31:57;;;;;;;14.20;10.43;;;32.80;52.00;;;;;;5085199;28;20447;-86
2022/06/19 09:34:31;;;;;;;14.43;10.13;;;32.90;52.00;;;;;;5083237;28;20852;-87
2022/06/19 09:37:05;;;;;;;12.00;9.77;;;32.90;50.90;;;;;;5082733;28;21047;-87
2022/06/19 09:39:46;;;;;;;13.30;10.70;;;32.90;49.80;;;;;;5088991;28;20449;-85
2022/06/19 09:42:19;;;;;;;13.63;9.77;;;33.00;49.60;;;;;;5088082;28;20450;-87
2022/06/19 09:44:52;;;;;;;18.50;9.43;;;33.00;49.50;;;;;;5086386;28;20431;-87
2022/06/19 09:47:27;;;;;;;15.47;8.87;;;33.00;49.50;;;;;;5096758;28;20527;-86
2022/06/19 09:50:01;;;;;;;13.57;8.43;;;33.10;48.70;;;;;;5088190;28;20408;-87
2022/06/19 09:52:38;;;;;;;14.80;8.60;;;33.10;47.00;;;;;;5083149;28;20513;-87
2022/06/19 09:55:12;;;;;;;16.13;8.30;;;33.20;46.60;;;;;;5081659;28;20588;-86
2022/06/19 09:57:46;;;;;;;15.47;8.20;;;33.20;46.80;;;;;;5084339;28;20550;-86
2022/06/19 10:00:21;;;;;;;14.17;9.70;;;33.20;46.10;;;;;;5082747;28;20526;-87
2022/06/19 10:02:56;;;;;;;14.37;8.87;;;33.30;46.40;;;;;;5084439;28;20441;-87
2022/06/19 10:05:32;;;;;;;14.97;9.90;;;33.30;46.40;;;;;;5087910;28;20469;-85
2022/06/19 10:08:04;;;;;;;15.13;9.30;;;33.40;46.90;;;;;;5086457;28;20567;-86
2022/06/19 10:10:49;;;;;;;17.47;9.23;;;33.40;46.80;;;;;;5085230;28;20454;-87
2022/06/19 10:13:30;;;;;;;17.03;9.27;;;33.60;46.50;;;;;;5086068;28;20488;-84
2022/06/19 10:15:59;;;;;;;18.43;9.73;;;33.60;46.30;;;;;;5089068;28;20461;-84
2022/06/19 10:18:32;;;;;;;18.20;9.40;;;33.60;46.70;;;;;;5085560;28;20814;-85
2022/06/19 10:21:04;;;;;;;17.03;9.90;;;33.50;46.80;;;;;;5088273;28;20535;-86
2022/06/19 10:23:47;;;;;;;14.10;8.80;;;33.50;47.00;;;;;;5092904;28;20430;-86
2022/06/19 10:26:29;;;;;;;17.20;10.27;;;33.60;46.70;;;;;;5096565;28;20435;-86
2022/06/19 10:29:23;;;;;;;17.20;10.40;;;33.60;46.40;;;;;;5097118;28;20499;-86
2022/06/19 10:32:09;;;;;;;18.87;9.40;;;33.60;46.00;;;;;;5096202;28;20473;-86
2022/06/19 10:34:48;;;;;;;12.80;9.57;;;33.70;45.80;;;;;;5085581;28;20412;-85
2022/06/19 10:37:31;;;;;;;18.27;9.80;;;33.80;45.60;;;;;;5080133;28;20903;-85
2022/06/19 10:40:12;;;;;;;14.30;9.33;;;33.70;44.60;;;;;;5082867;28;20432;-86
2022/06/19 10:42:51;;;;;;;15.10;8.93;;;33.80;45.10;;;;;;5081082;28;20473;-86
2022/06/19 10:45:35;;;;;;;13.97;10.07;;;33.80;45.10;;;;;;5080418;28;20449;-86
2022/06/19 10:48:24;;;;;;;20.67;9.80;;;33.90;44.50;;;;;;5081698;28;20971;-87
2022/06/19 10:51:13;;;;;;;11.97;9.23;;;33.90;44.50;;;;;;5070819;28;20938;-86
2022/06/19 10:53:55;;;;;;;18.27;9.67;;;33.90;44.80;;;;;;5082945;28;20455;-86
2022/06/19 10:56:34;;;;;;;18.53;9.70;;;33.90;44.90;;;;;;5082684;28;20474;-86
2022/06/19 10:59:05;;;;;;;14.97;8.40;;;33.90;44.20;;;;;;5084118;28;20434;-85
2022/06/19 11:04:34;;;;;;;13.13;9.23;;;33.90;43.80;;;;;;5082532;28;20447;-86
2022/06/19 11:07:07;;;;;;;23.43;9.43;;;34.00;43.60;;;;;;5081992;28;20467;-86
2022/06/19 11:09:39;;;;;;;15.00;9.33;;;34.00;43.20;;;;;;5077469;28;20497;-85
2022/06/19 11:12:14;;;;;;;18.07;8.83;;;34.00;43.20;;;;;;5087783;28;20450;-86
2022/06/19 11:14:49;;;;;;;16.20;10.00;;;34.10;43.30;;;;;;5090158;28;20513;-86
2022/06/19 11:17:29;;;;;;;16.03;8.73;;;34.20;43.10;;;;;;5084502;28;20494;-86
2022/06/19 11:19:58;;;;;;;14.53;8.03;;;34.20;42.80;;;;;;5083703;28;20840;-86
2022/06/19 11:22:44;;;;;;;16.80;9.07;;;34.20;42.80;;;;;;5084980;28;20969;-86
2022/06/19 11:25:30;;;;;;;12.23;8.90;;;34.20;42.50;;;;;;5083870;28;20434;-86
2022/06/19 11:28:02;;;;;;;14.40;8.97;;;34.20;42.60;;;;;;5081204;28;20549;-86
2022/06/19 11:30:36;;;;;;;21.13;9.43;;;34.30;42.80;;;;;;5082810;28;20513;-85
2022/06/19 11:33:08;;;;;;;16.60;9.00;;;34.30;42.70;;;;;;5082735;28;20433;-85
2022/06/19 11:35:41;;;;;;;21.10;8.53;;;34.40;42.60;;;;;;5082562;28;20453;-86
2022/06/19 11:38:13;;;;;;;12.20;8.70;;;34.50;42.50;;;;;;5085562;28;20510;-86
2022/06/19 11:40:49;;;;;;;13.40;9.27;;;34.50;42.60;;;;;;5085156;28;20519;-85
2022/06/19 11:43:31;;;;;;;13.40;8.63;;;34.50;42.30;;;;;;5086748;28;20444;-85
2022/06/19 11:46:04;;;;;;;13.60;8.77;;;34.50;42.20;;;;;;5083647;28;20438;-86
2022/06/19 11:48:31;;;;;;;20.83;8.50;;;34.60;42.30;;;;;;5083523;28;20501;-86
2022/06/19 11:50:58;;;;;;;15.70;8.47;;;34.50;41.60;;;;;;5084515;28;20466;-86
2022/06/19 11:53:32;;;;;;;16.57;9.80;;;34.50;41.90;;;;;;5085213;28;20454;-86
2022/06/19 11:56:24;;;;;;;15.17;9.20;;;34.40;42.00;;;;;;5087527;28;20478;-85
2022/06/19 11:59:01;;;;;;;13.10;8.13;;;34.50;42.10;;;;;;5088204;28;20509;-86
2022/06/19 12:01:47;;;;;;;13.53;8.60;;;34.50;42.20;;;;;;5087339;28;20470;-86
2022/06/19 12:04:33;;;;;;;18.30;9.43;;;34.50;42.00;;;;;;5089288;28;20429;-85
2022/06/19 12:07:03;;;;;;;13.27;8.70;;;34.50;42.10;;;;;;5085528;28;20516;-85
2022/06/19 12:09:35;;;;;;;15.47;8.40;;;34.50;42.10;;;;;;5086683;28;20790;-85
2022/06/19 12:12:08;;;;;;;13.27;8.30;;;34.60;42.20;;;;;;5085468;28;20461;-85
2022/06/19 12:14:39;;;;;;;16.03;9.00;;;34.70;41.90;;;;;;5085661;28;20497;-86
2022/06/19 12:17:20;;;;;;;16.80;8.60;;;34.70;41.80;;;;;;5089157;28;20494;-86
2022/06/19 12:19:57;;;;;;;16.10;9.40;;;34.70;42.10;;;;;;5090320;28;20425;-87
2022/06/19 12:22:34;;;;;;;17.03;8.00;;;34.80;42.10;;;;;;5083473;28;20437;-86
2022/06/19 12:25:09;;;;;;;14.63;8.83;;;34.80;41.30;;;;;;5086893;28;20828;-86
2022/06/19 12:27:43;;;;;;;16.60;9.20;;;34.80;41.50;;;;;;5087794;28;20469;-86
2022/06/19 12:30:17;;;;;;;13.63;9.30;;;34.80;41.70;;;;;;5084329;28;20858;-86
2022/06/19 12:32:51;;;;;;;14.60;8.27;;;34.80;41.70;;;;;;5086392;28;20492;-86
2022/06/19 12:35:32;;;;;;;12.37;8.30;;;34.70;41.30;;;;;;5089385;28;20439;-86
2022/06/19 12:38:00;;;;;;;15.27;8.50;;;34.70;41.30;;;;;;5089714;28;20489;-86
2022/06/19 12:41:26;;;;;;;19.60;8.40;;;34.70;41.50;;;;;;5088841;28;20460;-86
2022/06/19 12:44:03;;;;;;;19.27;9.00;;;34.70;41.10;;;;;;5077056;28;20457;-86
2022/06/19 12:47:01;;;;;;;14.57;8.97;;;34.70;40.90;;;;;;5096707;28;20446;-85
2022/06/19 12:50:05;;;;;;;16.70;8.20;;;34.80;40.50;;;;;;5095308;28;20421;-85
2022/06/19 12:52:39;;;;;;;19.40;9.40;;;34.80;40.40;;;;;;5097983;27;20503;-85
2022/06/19 12:55:30;;;;;;;14.27;8.87;;;34.90;40.60;;;;;;5097881;28;20502;-85
2022/06/19 12:58:12;;;;;;;14.73;8.20;;;35.00;40.30;;;;;;5082808;28;20544;-86
2022/06/19 13:00:45;;;;;;;13.83;8.80;;;35.00;40.10;;;;;;5078580;28;20613;-85
2022/06/19 13:03:38;;;;;;;18.80;9.00;;;35.10;40.00;;;;;;5077777;28;20801;-86
2022/06/19 13:06:28;;;;;;;15.90;9.40;;;35.10;39.80;;;;;;5078503;28;20439;-85
2022/06/19 13:09:05;;;;;;;16.33;8.47;;;35.00;40.10;;;;;;5080117;28;20487;-86
2022/06/19 13:11:46;;;;;;;16.23;8.63;;;35.00;40.30;;;;;;5079335;28;20501;-86
2022/06/19 13:14:40;;;;;;;12.10;7.73;;;35.10;40.20;;;;;;5081182;28;20865;-86
2022/06/19 13:17:11;;;;;;;16.17;8.10;;;35.20;40.40;;;;;;5080355;28;20519;-86
2022/06/19 13:19:54;;;;;;;20.73;9.17;;;35.30;40.20;;;;;;5079467;28;20529;-87
2022/06/19 13:23:12;;;;;;;12.30;7.80;;;35.40;40.20;;;;;;5080412;28;20730;-86
2022/06/19 13:25:49;;;;;;;13.10;9.20;;;35.50;39.40;;;;;;5077668;28;20584;-87
2022/06/19 13:28:31;;;;;;;20.30;8.77;;;35.70;39.40;;;;;;5080508;28;20472;-87
2022/06/19 13:31:07;;;;;;;18.40;9.57;;;35.70;38.90;;;;;;5086098;28;20488;-86
2022/06/19 13:33:54;;;;;;;16.53;9.60;;;35.70;39.10;;;;;;5087243;28;20570;-87
2022/06/19 13:36:32;;;;;;;14.50;8.80;;;35.80;39.30;;;;;;5080183;28;20442;-86
2022/06/19 13:41:49;;;;;;;19.33;8.30;;;35.90;38.50;;;;;;5120900;22;20495;-86
2022/06/19 13:44:41;;;;;;;19.80;9.07;;;35.90;38.70;;;;;;5080553;28;20809;-87
2022/06/19 13:47:13;;;;;;;15.43;9.30;;;35.90;38.40;;;;;;5080132;28;20906;-87
2022/06/19 13:49:46;;;;;;;13.50;8.40;;;36.00;38.20;;;;;;5084859;28;20478;-87
2022/06/19 13:52:57;;;;;;;17.80;8.20;;;36.10;38.40;;;;;;5091482;28;20472;-87
2022/06/19 13:56:02;;;;;;;14.00;9.13;;;36.00;38.50;;;;;;5093790;28;20437;-87
2022/06/19 13:58:59;;;;;;;18.83;9.47;;;35.90;39.00;;;;;;5083763;28;20544;-87